createdAt,value
2023-12-28T00:00:17.073Z,50.51
2023-12-28T00:02:44.644Z,51.09
2023-12-28T00:05:11.823Z,51.34
2023-12-28T00:07:39.180Z,51.64
2023-12-28T00:10:06.625Z,51.39
2023-12-28T00:12:33.775Z,51.44
2023-12-28T00:15:00.938Z,52.56
2023-12-28T00:17:28.285Z,51.18
2023-12-28T00:19:55.851Z,51.12
2023-12-28T00:22:23.008Z,49.60
2023-12-28T00:24:50.223Z,50.09
2023-12-28T00:27:17.419Z,49.55
2023-12-28T00:29:44.520Z,50.40
2023-12-28T00:32:11.951Z,50.86
2023-12-28T00:34:40.768Z,50.82
2023-12-28T00:37:07.995Z,50.61
2023-12-28T00:39:37.282Z,51.70
2023-12-28T00:42:05.285Z,50.98
2023-12-28T00:44:32.406Z,51.38
2023-12-28T00:46:59.570Z,51.62
2023-12-28T00:49:26.827Z,50.36
2023-12-28T00:51:54.032Z,50.44
2023-12-28T00:54:21.189Z,50.90
2023-12-28T00:56:48.305Z,51.35
2023-12-28T00:59:15.401Z,51.86
2023-12-28T01:01:42.639Z,51.50
2023-12-28T01:04:10.493Z,52.65
2023-12-28T01:06:37.706Z,52.34
2023-12-28T01:09:04.912Z,52.95
2023-12-28T01:11:32.057Z,52.86
2023-12-28T01:14:00.216Z,52.33
2023-12-28T01:16:27.360Z,52.33
2023-12-28T01:18:54.552Z,52.99
2023-12-28T01:21:21.721Z,51.31
2023-12-28T01:23:48.884Z,50.81
2023-12-28T01:26:16.026Z,49.81
2023-12-28T01:28:43.192Z,49.24
2023-12-28T01:31:10.576Z,48.61
2023-12-28T01:33:38.028Z,47.97
2023-12-28T01:36:17.574Z,47.47
2023-12-28T01:38:44.973Z,46.88
2023-12-28T01:41:13.524Z,45.38
2023-12-28T01:43:40.838Z,45.49
2023-12-28T01:46:10.110Z,44.66
2023-12-28T01:48:37.737Z,44.96
2023-12-28T01:51:05.240Z,45.00
2023-12-28T01:53:32.406Z,44.52
2023-12-28T01:56:00.198Z,45.48
2023-12-28T01:58:27.825Z,45.59
2023-12-28T02:00:57.300Z,44.73
2023-12-28T02:03:24.573Z,44.40
2023-12-28T02:05:52.874Z,43.81
2023-12-28T02:08:20.250Z,44.44
2023-12-28T02:10:47.601Z,44.16
2023-12-28T02:13:15.233Z,43.95
2023-12-28T02:15:42.692Z,44.29
2023-12-28T02:18:13.744Z,43.79
2023-12-28T02:20:41.261Z,45.02
2023-12-28T02:23:09.516Z,44.32
2023-12-28T02:25:36.634Z,42.85
2023-12-28T02:28:04.372Z,44.55
2023-12-28T02:30:31.957Z,43.73
2023-12-28T02:33:26.560Z,44.21
2023-12-28T02:35:57.897Z,44.61
2023-12-28T02:38:26.017Z,44.41
2023-12-28T02:40:53.481Z,44.27
2023-12-28T02:43:20.789Z,44.19
2023-12-28T02:45:50.829Z,45.01
2023-12-28T02:48:18.945Z,44.91
2023-12-28T02:50:46.345Z,45.16
2023-12-28T02:53:14.192Z,44.77
2023-12-28T02:55:41.504Z,44.98
2023-12-28T02:58:08.593Z,43.99
2023-12-28T03:00:36.006Z,44.77
2023-12-28T03:03:03.508Z,43.91
2023-12-28T03:05:31.059Z,44.66
2023-12-28T03:07:59.814Z,44.96
2023-12-28T03:10:27.306Z,45.43
2023-12-28T03:12:54.931Z,45.52
2023-12-28T03:15:22.333Z,45.30
2023-12-28T03:17:49.693Z,45.69
2023-12-28T03:20:17.526Z,45.15
2023-12-28T03:22:44.815Z,46.14
2023-12-28T03:25:12.125Z,46.28
2023-12-28T03:27:39.705Z,46.64
2023-12-28T03:30:07.912Z,47.05
2023-12-28T03:32:35.233Z,47.21
2023-12-28T03:35:02.627Z,47.78
2023-12-28T03:37:30.027Z,47.75
2023-12-28T03:39:57.248Z,48.20
2023-12-28T03:42:24.583Z,47.16
2023-12-28T03:44:51.945Z,47.05
2023-12-28T03:47:19.092Z,46.94
2023-12-28T03:49:46.412Z,46.00
2023-12-28T03:52:13.691Z,45.74
2023-12-28T03:54:40.887Z,45.04
2023-12-28T03:57:08.116Z,45.57
2023-12-28T03:59:35.626Z,45.73
2023-12-28T04:02:02.744Z,45.42
2023-12-28T04:04:30.111Z,45.84
2023-12-28T04:06:57.469Z,45.12
2023-12-28T04:09:24.799Z,45.83
2023-12-28T04:11:51.904Z,46.10
2023-12-28T04:14:19.222Z,45.68
2023-12-28T04:16:46.448Z,45.70
2023-12-28T04:19:13.690Z,45.70
2023-12-28T04:21:44.083Z,45.25
2023-12-28T04:24:11.247Z,45.74
2023-12-28T04:26:38.360Z,44.52
2023-12-28T04:29:05.494Z,44.86
2023-12-28T04:31:32.779Z,44.38
2023-12-28T04:34:00.041Z,45.06
2023-12-28T04:36:27.273Z,44.46
2023-12-28T04:38:54.975Z,44.61
2023-12-28T04:41:22.081Z,45.32
2023-12-28T04:43:49.317Z,44.88
2023-12-28T04:46:16.420Z,45.66
2023-12-28T04:48:43.657Z,45.67
2023-12-28T04:51:10.862Z,46.00
2023-12-28T04:53:37.969Z,46.33
2023-12-28T04:56:05.422Z,46.29
2023-12-28T04:58:33.047Z,46.56
2023-12-28T05:01:02.596Z,46.92
2023-12-28T05:03:29.816Z,46.73
2023-12-28T05:05:57.105Z,47.34
2023-12-28T05:08:24.278Z,47.20
2023-12-28T05:10:51.370Z,47.36
2023-12-28T05:13:18.615Z,48.13
2023-12-28T05:15:45.868Z,48.11
2023-12-28T05:18:13.131Z,48.24
2023-12-28T05:20:40.796Z,48.72
2023-12-28T05:23:07.942Z,49.46
2023-12-28T05:25:35.027Z,49.70
2023-12-28T05:28:02.477Z,49.94
2023-12-28T05:30:29.866Z,51.01
2023-12-28T05:32:57.093Z,51.74
2023-12-28T05:35:24.197Z,52.42
2023-12-28T05:37:51.264Z,53.38
2023-12-28T05:40:18.609Z,53.29
2023-12-28T05:42:45.761Z,54.09
2023-12-28T05:45:13.103Z,55.47
2023-12-28T05:47:40.221Z,56.32
2023-12-28T05:50:07.633Z,56.52
2023-12-28T05:52:34.775Z,56.30
2023-12-28T05:55:02.044Z,55.92
2023-12-28T05:57:31.832Z,55.49
2023-12-28T05:59:59.177Z,55.34
2023-12-28T06:02:26.542Z,55.45
2023-12-28T06:04:53.791Z,55.34
2023-12-28T06:07:20.940Z,54.83
2023-12-28T06:09:48.125Z,55.28
2023-12-28T06:12:15.933Z,55.24
2023-12-28T06:14:43.068Z,55.45
2023-12-28T06:17:10.190Z,55.36
2023-12-28T06:19:37.326Z,56.02
2023-12-28T06:22:04.747Z,56.54
2023-12-28T06:24:35.248Z,56.17
2023-12-28T06:27:02.385Z,56.67
2023-12-28T06:29:29.471Z,56.78
2023-12-28T06:31:56.656Z,57.08
2023-12-28T06:34:23.851Z,56.90
2023-12-28T06:36:51.361Z,56.74
2023-12-28T06:39:18.702Z,56.75
2023-12-28T06:41:49.813Z,56.39
2023-12-28T06:44:16.968Z,56.53
2023-12-28T06:46:44.287Z,56.94
2023-12-28T06:49:11.908Z,56.63
2023-12-28T06:51:39.264Z,56.92
2023-12-28T06:54:06.467Z,57.49
2023-12-28T06:56:33.548Z,57.57
2023-12-28T06:59:00.650Z,57.70
2023-12-28T07:01:27.809Z,57.86
2023-12-28T07:03:55.054Z,57.94
2023-12-28T07:06:22.328Z,58.17
2023-12-28T07:08:49.432Z,58.48
2023-12-28T07:11:16.625Z,58.69
2023-12-28T07:13:43.818Z,59.08
2023-12-28T07:16:11.031Z,59.33
2023-12-28T07:18:38.402Z,59.52
2023-12-28T07:21:07.165Z,59.91
2023-12-28T07:23:34.281Z,60.15
2023-12-28T07:26:01.608Z,60.55
2023-12-28T07:28:28.670Z,60.48
2023-12-28T07:30:55.864Z,61.06
2023-12-28T07:33:23.179Z,60.86
2023-12-28T07:35:50.362Z,60.91
2023-12-28T07:38:17.487Z,61.00
2023-12-28T07:40:44.748Z,61.51
2023-12-28T07:43:11.822Z,61.50
2023-12-28T07:45:40.101Z,61.73
2023-12-28T07:48:07.808Z,62.04
2023-12-28T07:50:35.026Z,62.03
2023-12-28T07:53:02.132Z,62.20
2023-12-28T07:55:29.260Z,62.08
2023-12-28T07:57:56.643Z,62.22
2023-12-28T08:00:23.914Z,62.19
2023-12-28T08:02:51.198Z,62.63
2023-12-28T08:05:18.452Z,62.40
2023-12-28T08:07:45.530Z,62.60
2023-12-28T08:10:12.620Z,63.41
2023-12-28T08:12:40.184Z,63.86
2023-12-28T08:15:07.777Z,64.44
2023-12-28T08:17:34.934Z,64.60
2023-12-28T08:20:02.329Z,64.31
2023-12-28T08:22:29.477Z,65.68
2023-12-28T08:24:56.749Z,66.30
2023-12-28T08:27:23.980Z,66.48
2023-12-28T08:29:51.117Z,67.11
2023-12-28T08:32:18.486Z,66.99
2023-12-28T08:34:46.308Z,66.89
2023-12-28T08:37:13.527Z,67.07
2023-12-28T08:39:41.066Z,66.65
2023-12-28T08:42:08.245Z,66.75
2023-12-28T08:44:36.241Z,66.64
2023-12-28T08:47:03.461Z,66.70
2023-12-28T08:49:30.810Z,66.54
2023-12-28T08:51:58.028Z,66.50
2023-12-28T08:54:25.173Z,66.26
2023-12-28T08:56:53.723Z,65.71
2023-12-28T08:59:22.845Z,66.23
2023-12-28T09:01:49.980Z,66.16
2023-12-28T09:04:17.391Z,65.94
2023-12-28T09:06:44.903Z,65.84
2023-12-28T09:09:12.010Z,65.75
2023-12-28T09:11:39.188Z,65.74
2023-12-28T09:14:06.761Z,65.44
2023-12-28T09:16:33.925Z,65.54
2023-12-28T09:19:01.164Z,65.84
2023-12-28T09:21:28.451Z,65.91
2023-12-28T09:23:55.754Z,65.83
2023-12-28T09:26:22.852Z,66.26
2023-12-28T09:28:50.178Z,66.17
2023-12-28T09:31:17.593Z,66.62
2023-12-28T09:33:44.857Z,66.63
2023-12-28T09:36:14.364Z,66.77
2023-12-28T09:38:41.678Z,66.77
2023-12-28T09:41:16.551Z,66.99
2023-12-28T09:44:09.364Z,66.91
2023-12-28T09:46:36.539Z,66.55
2023-12-28T09:49:05.124Z,66.78
2023-12-28T09:51:32.404Z,66.76
2023-12-28T09:53:59.801Z,66.58
2023-12-28T09:56:30.598Z,66.33
2023-12-28T09:58:58.313Z,66.29
2023-12-28T10:01:25.653Z,66.38
2023-12-28T10:03:52.948Z,66.18
2023-12-28T10:06:20.558Z,66.42
2023-12-28T10:08:51.792Z,66.45
2023-12-28T10:11:19.813Z,66.62
2023-12-28T10:13:46.962Z,66.92
2023-12-28T10:16:14.451Z,66.76
2023-12-28T10:18:43.792Z,67.00
2023-12-28T10:21:12.795Z,67.25
2023-12-28T10:23:40.337Z,67.18
2023-12-28T10:26:07.509Z,67.35
2023-12-28T10:28:39.302Z,67.45
2023-12-28T10:31:06.676Z,67.20
2023-12-28T10:33:37.296Z,67.32
2023-12-28T10:36:07.921Z,67.10
2023-12-28T10:38:39.855Z,67.42
2023-12-28T10:41:08.836Z,67.20
2023-12-28T10:43:47.086Z,67.14
2023-12-28T10:46:29.317Z,67.48
2023-12-28T10:49:11.796Z,67.54
2023-12-28T10:51:43.809Z,67.66
2023-12-28T10:54:48.356Z,67.76
2023-12-28T10:57:28.867Z,67.90
2023-12-28T11:00:08.225Z,68.12
2023-12-28T11:02:52.784Z,68.24
2023-12-28T11:05:21.946Z,68.36
2023-12-28T11:07:53.749Z,68.60
2023-12-28T11:10:24.451Z,68.66
2023-12-28T11:12:53.101Z,68.73
2023-12-28T11:15:20.837Z,68.78
2023-12-28T11:17:48.150Z,68.72
2023-12-28T11:20:15.316Z,68.93
2023-12-28T11:22:43.293Z,68.99
2023-12-28T11:25:17.475Z,69.28
2023-12-28T11:27:44.837Z,69.22
2023-12-28T11:30:12.391Z,69.02
2023-12-28T11:32:43.390Z,68.85
2023-12-28T11:35:16.635Z,68.84
2023-12-28T11:37:48.950Z,68.98
2023-12-28T11:40:20.604Z,68.88
2023-12-28T11:42:52.138Z,68.97
2023-12-28T11:45:20.310Z,69.05
2023-12-28T11:47:47.756Z,69.06
2023-12-28T11:50:15.224Z,68.97
2023-12-28T11:52:44.750Z,69.00
2023-12-28T11:55:22.257Z,68.80
2023-12-28T11:57:49.499Z,68.74
2023-12-28T12:00:16.903Z,68.76
2023-12-28T12:02:46.444Z,68.78
2023-12-28T12:05:14.244Z,68.89
2023-12-28T12:07:42.166Z,68.67
2023-12-28T12:10:14.250Z,68.71
2023-12-28T12:12:41.370Z,68.78
2023-12-28T12:15:09.344Z,68.59
2023-12-28T12:17:36.648Z,68.41
2023-12-28T12:20:05.114Z,68.45
2023-12-28T12:22:33.452Z,68.61
2023-12-28T12:25:05.142Z,68.29
2023-12-28T12:27:32.880Z,68.31
2023-12-28T12:30:00.028Z,68.49
2023-12-28T12:32:28.076Z,68.33
2023-12-28T12:34:55.504Z,68.35
2023-12-28T12:37:22.759Z,68.31
2023-12-28T12:39:50.397Z,68.10
2023-12-28T12:42:21.384Z,68.17
2023-12-28T12:44:48.569Z,68.03
2023-12-28T12:47:15.689Z,68.14
2023-12-28T12:49:45.314Z,68.10
2023-12-28T12:52:13.404Z,68.36
2023-12-28T12:54:40.670Z,68.09
2023-12-28T12:57:07.910Z,67.98
2023-12-28T12:59:35.001Z,68.25
2023-12-28T13:02:02.423Z,68.25
2023-12-28T13:04:29.658Z,68.20
2023-12-28T13:06:57.188Z,68.20
2023-12-28T13:09:24.444Z,68.05
2023-12-28T13:11:52.969Z,68.36
2023-12-28T13:14:21.498Z,68.29
2023-12-28T13:16:49.501Z,68.16
2023-12-28T13:19:16.901Z,68.37
2023-12-28T13:21:44.458Z,68.30
2023-12-28T13:24:11.733Z,68.14
2023-12-28T13:26:39.244Z,68.66
2023-12-28T13:29:06.905Z,68.54
2023-12-28T13:31:34.279Z,68.01
2023-12-28T13:34:01.738Z,68.37
2023-12-28T13:36:29.779Z,68.09
2023-12-28T13:38:57.004Z,68.25
2023-12-28T13:41:24.158Z,68.32
2023-12-28T13:43:51.273Z,68.12
2023-12-28T13:46:18.476Z,68.42
2023-12-28T13:48:45.660Z,68.15
2023-12-28T13:51:12.795Z,68.13
2023-12-28T13:53:42.187Z,67.80
2023-12-28T13:56:09.930Z,67.80
2023-12-28T13:58:37.281Z,67.71
2023-12-28T14:01:04.819Z,67.93
2023-12-28T14:03:32.343Z,67.87
2023-12-28T14:05:59.706Z,68.07
2023-12-28T14:08:26.830Z,67.93
2023-12-28T14:10:54.021Z,68.05
2023-12-28T14:13:21.897Z,68.06
2023-12-28T14:15:49.617Z,68.07
2023-12-28T14:18:16.871Z,68.16
2023-12-28T14:20:44.122Z,68.13
2023-12-28T14:23:11.519Z,67.79
2023-12-28T14:25:38.985Z,68.15
2023-12-28T14:28:06.516Z,68.02
2023-12-28T14:30:34.114Z,68.08
2023-12-28T14:33:02.008Z,68.12
2023-12-28T14:35:29.646Z,68.01
2023-12-28T14:37:56.927Z,67.89
2023-12-28T14:40:24.169Z,68.21
2023-12-28T14:42:51.265Z,68.08
2023-12-28T14:45:18.691Z,68.07
2023-12-28T14:47:46.405Z,68.20
2023-12-28T14:50:14.628Z,68.36
2023-12-28T14:52:43.889Z,68.24
2023-12-28T14:55:11.665Z,68.54
2023-12-28T14:57:39.071Z,68.57
2023-12-28T15:00:06.884Z,68.31
2023-12-28T15:02:34.579Z,68.29
2023-12-28T15:05:01.989Z,68.45
2023-12-28T15:07:29.512Z,68.43
2023-12-28T15:09:59.253Z,68.38
2023-12-28T15:12:26.866Z,68.39
2023-12-28T15:14:54.149Z,68.38
2023-12-28T15:17:23.252Z,68.17
2023-12-28T15:19:50.630Z,68.34
2023-12-28T15:22:17.984Z,68.39
2023-12-28T15:24:45.420Z,68.11
2023-12-28T15:27:13.313Z,68.61
2023-12-28T15:29:40.401Z,68.08
2023-12-28T15:32:07.550Z,68.37
2023-12-28T15:34:35.150Z,68.17
2023-12-28T15:37:02.413Z,68.58
2023-12-28T15:39:29.707Z,68.65
2023-12-28T15:41:56.825Z,68.70
2023-12-28T15:44:23.923Z,68.81
2023-12-28T15:46:51.060Z,68.78
2023-12-28T15:49:18.420Z,68.92
2023-12-28T15:51:45.783Z,68.70
2023-12-28T15:54:12.967Z,68.95
2023-12-28T15:56:40.094Z,68.72
2023-12-28T15:59:07.203Z,69.02
2023-12-28T16:01:34.410Z,68.76
2023-12-28T16:04:01.794Z,69.04
2023-12-28T16:06:28.974Z,69.25
2023-12-28T16:08:56.208Z,69.45
2023-12-28T16:11:23.539Z,69.55
2023-12-28T16:13:51.042Z,69.36
2023-12-28T16:16:18.531Z,69.72
2023-12-28T16:18:45.896Z,70.17
2023-12-28T16:21:13.426Z,70.04
2023-12-28T16:23:40.682Z,69.73
2023-12-28T16:26:08.312Z,70.29
2023-12-28T16:28:37.454Z,70.64
2023-12-28T16:31:05.228Z,70.71
2023-12-28T16:33:32.788Z,70.63
2023-12-28T16:36:00.103Z,71.23
2023-12-28T16:38:27.921Z,71.03
2023-12-28T16:40:55.006Z,71.04
2023-12-28T16:43:24.154Z,71.59
2023-12-28T16:45:51.616Z,71.70
2023-12-28T16:48:19.601Z,71.63
2023-12-28T16:50:46.908Z,71.97
2023-12-28T16:53:14.649Z,72.65
2023-12-28T16:55:41.721Z,71.97
2023-12-28T16:58:09.396Z,72.13
2023-12-28T17:00:37.686Z,72.29
2023-12-28T17:03:05.549Z,72.34
2023-12-28T17:05:33.006Z,72.20
2023-12-28T17:08:00.371Z,72.48
2023-12-28T17:10:28.222Z,72.61
2023-12-28T17:12:56.581Z,72.92
2023-12-28T17:15:24.035Z,73.69
2023-12-28T17:17:51.582Z,73.71
2023-12-28T17:20:19.517Z,73.65
2023-12-28T17:22:48.063Z,74.34
2023-12-28T17:25:48.304Z,74.58
2023-12-28T17:28:19.105Z,74.09
2023-12-28T17:30:47.421Z,74.25
2023-12-28T17:33:15.067Z,74.43
2023-12-28T17:35:43.075Z,74.71
2023-12-28T17:38:10.766Z,74.54
2023-12-28T17:40:38.380Z,75.01
2023-12-28T17:43:45.996Z,75.46
2023-12-28T17:46:43.582Z,75.78
2023-12-28T17:49:13.397Z,75.33
2023-12-28T17:51:40.863Z,75.71
2023-12-28T17:54:08.331Z,76.39
2023-12-28T17:56:35.412Z,75.80
2023-12-28T17:59:02.668Z,75.98
2023-12-28T18:01:30.058Z,75.73
2023-12-28T18:03:57.350Z,76.68
2023-12-28T18:06:27.124Z,76.44
2023-12-28T18:08:54.353Z,76.34
2023-12-28T18:11:21.475Z,76.67
2023-12-28T18:13:48.626Z,76.49
2023-12-28T18:16:15.865Z,76.97
2023-12-28T18:18:43.214Z,76.34
2023-12-28T18:21:13.534Z,76.82
2023-12-28T18:23:40.660Z,76.36
2023-12-28T18:26:08.512Z,76.70
2023-12-28T18:28:36.539Z,76.63
2023-12-28T18:31:03.825Z,77.10
2023-12-28T18:33:31.445Z,76.58
2023-12-28T18:36:00.081Z,76.56
2023-12-28T18:38:27.196Z,76.34
2023-12-28T18:40:54.257Z,76.76
2023-12-28T18:43:21.745Z,76.47
2023-12-28T18:45:49.535Z,76.59
2023-12-28T18:48:17.785Z,77.02
2023-12-28T18:50:45.514Z,77.04
2023-12-28T18:53:12.716Z,77.07
2023-12-28T18:55:42.452Z,76.73
2023-12-28T18:58:09.858Z,77.32
2023-12-28T19:00:37.963Z,77.12
2023-12-28T19:03:06.547Z,77.46
2023-12-28T19:05:34.286Z,77.32
2023-12-28T19:08:02.251Z,77.53
2023-12-28T19:10:29.662Z,77.43
2023-12-28T19:12:56.777Z,77.84
2023-12-28T19:15:24.218Z,77.40
2023-12-28T19:17:51.432Z,77.73
2023-12-28T19:20:18.707Z,77.78
2023-12-28T19:22:45.806Z,78.01
2023-12-28T19:25:15.251Z,78.15
2023-12-28T19:27:42.489Z,78.42
2023-12-28T19:30:10.291Z,78.20
2023-12-28T19:32:38.020Z,78.47
2023-12-28T19:35:06.843Z,78.53
2023-12-28T19:37:34.451Z,78.69
2023-12-28T19:40:01.639Z,78.51
2023-12-28T19:42:29.522Z,78.39
2023-12-28T19:44:56.750Z,78.41
2023-12-28T19:47:23.856Z,78.85
2023-12-28T19:49:51.021Z,79.06
2023-12-28T19:52:20.030Z,79.30
2023-12-28T19:54:47.899Z,79.35
2023-12-28T19:57:15.023Z,79.63
2023-12-28T19:59:42.174Z,79.41
2023-12-28T20:02:10.928Z,79.32
2023-12-28T20:04:38.070Z,79.18
2023-12-28T20:07:05.635Z,79.82
2023-12-28T20:09:32.839Z,79.40
2023-12-28T20:11:59.985Z,78.72
2023-12-28T20:14:27.129Z,79.09
2023-12-28T20:16:54.217Z,78.56
2023-12-28T20:19:24.401Z,78.63
2023-12-28T20:21:53.946Z,78.43
2023-12-28T20:24:22.410Z,78.04
2023-12-28T20:26:49.722Z,78.04
2023-12-28T20:29:17.409Z,77.67
2023-12-28T20:31:44.568Z,77.89
2023-12-28T20:34:11.953Z,77.60
2023-12-28T20:36:39.162Z,77.64
2023-12-28T20:39:07.204Z,77.41
2023-12-28T20:41:34.513Z,77.09
2023-12-28T20:44:02.304Z,77.26
2023-12-28T20:46:29.793Z,77.52
2023-12-28T20:48:58.106Z,77.06
2023-12-28T20:51:26.688Z,77.04
2023-12-28T20:53:53.862Z,77.18
2023-12-28T20:56:21.084Z,77.28
2023-12-28T20:58:48.476Z,77.30
2023-12-28T21:01:15.949Z,77.15
2023-12-28T21:03:43.832Z,76.69
2023-12-28T21:06:11.260Z,76.83
2023-12-28T21:08:38.471Z,76.27
2023-12-28T21:11:05.695Z,76.24
2023-12-28T21:13:39.188Z,76.02
2023-12-28T21:16:07.806Z,75.97
2023-12-28T21:18:35.341Z,75.48
2023-12-28T21:21:10.218Z,75.20
2023-12-28T21:23:40.019Z,74.72
2023-12-28T21:26:07.116Z,74.52
2023-12-28T21:28:34.310Z,74.51
2023-12-28T21:31:02.245Z,74.05
2023-12-28T21:33:29.744Z,74.21
2023-12-28T21:35:57.048Z,73.71
2023-12-28T21:38:24.179Z,73.60
2023-12-28T21:40:51.327Z,73.61
2023-12-28T21:43:18.565Z,73.11
2023-12-28T21:45:50.489Z,72.72
2023-12-28T21:48:18.349Z,72.80
2023-12-28T21:50:45.526Z,72.84
2023-12-28T21:53:12.992Z,72.67
2023-12-28T21:55:41.523Z,72.13
2023-12-28T21:58:08.718Z,72.43
2023-12-28T22:00:36.656Z,72.21
2023-12-28T22:03:03.882Z,72.67
2023-12-28T22:05:31.444Z,72.25
2023-12-28T22:07:58.867Z,72.18
2023-12-28T22:10:26.158Z,72.84
2023-12-28T22:12:53.295Z,72.55
2023-12-28T22:15:20.697Z,72.49
2023-12-28T22:17:48.678Z,72.72
2023-12-28T22:20:16.402Z,72.89
2023-12-28T22:22:43.565Z,72.94
2023-12-28T22:25:10.749Z,72.95
2023-12-28T22:27:37.950Z,72.70
2023-12-28T22:30:05.506Z,72.60
2023-12-28T22:32:32.989Z,72.84
2023-12-28T22:35:00.307Z,73.37
2023-12-28T22:37:27.536Z,72.78
2023-12-28T22:39:54.824Z,72.95
2023-12-28T22:42:23.644Z,73.36
2023-12-28T22:44:52.304Z,73.06
2023-12-28T22:47:20.235Z,73.00
2023-12-28T22:49:47.431Z,73.20
2023-12-28T22:52:16.946Z,73.79
2023-12-28T22:54:45.165Z,73.86
2023-12-28T22:57:12.301Z,73.67
2023-12-28T22:59:43.780Z,74.09
2023-12-28T23:02:12.966Z,73.99
2023-12-28T23:04:49.354Z,74.33
2023-12-28T23:07:20.734Z,74.60
2023-12-28T23:09:47.842Z,74.39
2023-12-28T23:12:15.027Z,74.56
2023-12-28T23:14:42.143Z,74.92
2023-12-28T23:17:10.094Z,74.43
2023-12-28T23:19:37.334Z,75.01
2023-12-28T23:22:04.715Z,75.09
2023-12-28T23:24:32.253Z,75.15
2023-12-28T23:26:59.326Z,75.62
2023-12-28T23:29:26.461Z,75.63
2023-12-28T23:31:54.856Z,75.91
2023-12-28T23:34:29.553Z,76.13
2023-12-28T23:36:59.340Z,76.49
2023-12-28T23:39:26.609Z,76.33
2023-12-28T23:41:53.753Z,76.87
2023-12-28T23:44:20.865Z,77.06
2023-12-28T23:46:47.933Z,77.55
2023-12-28T23:49:15.105Z,77.38
2023-12-28T23:51:42.356Z,77.07
2023-12-28T23:54:09.672Z,76.88
2023-12-28T23:56:36.807Z,76.91
2023-12-28T23:59:04.393Z,76.70
